createdAt,value
2022-12-19T00:01:38.515Z,115.17
2022-12-19T00:04:10.162Z,104.07
2022-12-19T00:06:41.936Z,107.27
2022-12-19T00:09:11.990Z,103.20
2022-12-19T00:11:39.689Z,120.20
2022-12-19T00:14:07.436Z,117.77
2022-12-19T00:16:34.532Z,117.90
2022-12-19T00:19:02.303Z,107.73
2022-12-19T00:21:34.666Z,106.83
2022-12-19T00:24:15.776Z,103.63
2022-12-19T00:26:48.217Z,103.20
2022-12-19T00:29:15.380Z,94.20
2022-12-19T00:31:43.456Z,108.80
2022-12-19T00:34:10.626Z,102.20
2022-12-19T00:36:40.195Z,107.37
2022-12-19T00:39:08.706Z,101.47
2022-12-19T00:41:41.311Z,111.93
2022-12-19T00:44:14.509Z,99.83
2022-12-19T00:46:42.196Z,102.43
2022-12-19T00:49:09.602Z,103.93
2022-12-19T00:51:37.865Z,103.60
2022-12-19T00:54:09.902Z,106.60
2022-12-19T00:56:37.147Z,110.73
2022-12-19T00:59:07.296Z,111.90
2022-12-19T01:01:37.728Z,102.63
2022-12-19T01:06:57.788Z,109.27
2022-12-19T01:09:32.723Z,109.57
2022-12-19T01:12:18.621Z,107.80
2022-12-19T01:14:45.684Z,106.03
2022-12-19T01:17:12.927Z,109.00
2022-12-19T01:19:44.069Z,114.07
2022-12-19T01:22:12.784Z,97.77
2022-12-19T01:24:40.176Z,95.53
2022-12-19T01:27:07.995Z,97.77
2022-12-19T01:29:37.204Z,96.10
2022-12-19T01:32:13.543Z,115.03
2022-12-19T01:34:40.612Z,108.83
2022-12-19T01:37:07.685Z,99.10
2022-12-19T01:39:34.720Z,91.80
2022-12-19T01:42:20.248Z,110.73
2022-12-19T01:45:33.411Z,116.10
2022-12-19T01:48:14.020Z,107.93
2022-12-19T01:51:09.703Z,111.33
2022-12-19T01:53:48.931Z,96.37
2022-12-19T01:56:20.069Z,109.07
2022-12-19T01:58:49.452Z,102.80
2022-12-19T02:01:18.076Z,95.40
2022-12-19T02:03:46.095Z,95.37
2022-12-19T02:06:14.823Z,104.50
2022-12-19T02:08:43.400Z,89.17
2022-12-19T02:11:10.437Z,96.07
2022-12-19T02:13:38.924Z,89.90
2022-12-19T02:16:50.316Z,102.83
2022-12-19T02:20:07.273Z,98.53
2022-12-19T02:23:09.587Z,105.67
2022-12-19T02:26:14.512Z,110.50
2022-12-19T02:29:33.816Z,99.50
2022-12-19T02:32:14.758Z,97.40
2022-12-19T02:34:56.785Z,93.20
2022-12-19T02:37:34.667Z,113.60
2022-12-19T02:40:13.755Z,92.13
2022-12-19T02:42:46.601Z,95.73
2022-12-19T02:45:28.612Z,96.07
2022-12-19T02:48:03.302Z,101.77
2022-12-19T02:50:45.064Z,86.00
2022-12-19T02:53:16.199Z,87.90
2022-12-19T02:56:11.113Z,102.00
2022-12-19T02:59:03.146Z,100.93
2022-12-19T03:02:00.380Z,81.57
2022-12-19T03:05:13.201Z,96.30
2022-12-19T03:07:54.275Z,90.27
2022-12-19T03:10:37.206Z,90.17
2022-12-19T03:13:21.755Z,81.73
2022-12-19T03:15:49.935Z,93.43
2022-12-19T03:18:17.417Z,92.67
2022-12-19T03:21:17.769Z,105.70
2022-12-19T03:23:46.055Z,86.37
2022-12-19T03:26:19.695Z,95.13
2022-12-19T03:29:21.440Z,108.97
2022-12-19T03:31:48.820Z,107.23
2022-12-19T03:34:49.083Z,101.60
2022-12-19T03:37:21.034Z,104.10
2022-12-19T03:39:53.077Z,99.23
2022-12-19T03:42:43.020Z,100.00
2022-12-19T03:45:11.863Z,94.53
2022-12-19T03:47:45.304Z,105.97
2022-12-19T03:50:12.434Z,96.80
2022-12-19T03:53:07.500Z,89.63
2022-12-19T03:55:44.514Z,107.00
2022-12-19T03:58:17.098Z,107.87
2022-12-19T04:00:49.089Z,103.63
2022-12-19T04:03:18.404Z,92.97
2022-12-19T04:05:48.588Z,104.70
2022-12-19T04:08:16.825Z,96.47
2022-12-19T04:10:55.470Z,108.13
2022-12-19T04:13:40.927Z,94.70
2022-12-19T04:16:39.483Z,121.53
2022-12-19T04:19:39.855Z,107.03
2022-12-19T04:22:42.394Z,101.00
2022-12-19T04:25:14.962Z,91.70
2022-12-19T04:27:56.860Z,107.47
2022-12-19T04:30:24.091Z,112.47
2022-12-19T04:32:52.055Z,110.13
2022-12-19T04:35:19.230Z,115.77
2022-12-19T04:37:46.537Z,123.87
2022-12-19T04:40:14.236Z,108.90
2022-12-19T04:42:41.400Z,104.70
2022-12-19T04:45:09.507Z,133.67
2022-12-19T04:47:36.607Z,110.00
2022-12-19T04:50:04.191Z,115.93
2022-12-19T04:52:31.332Z,133.57
2022-12-19T04:54:58.473Z,108.30
2022-12-19T04:57:25.516Z,96.93
2022-12-19T04:59:52.618Z,131.67
2022-12-19T05:02:19.859Z,103.90
2022-12-19T05:04:47.043Z,114.47
2022-12-19T05:07:14.387Z,103.93
2022-12-19T05:09:41.903Z,116.47
2022-12-19T05:12:10.299Z,107.17
2022-12-19T05:14:37.544Z,89.77
2022-12-19T05:17:04.940Z,89.73
2022-12-19T05:19:32.112Z,89.40
2022-12-19T05:21:59.558Z,99.70
2022-12-19T05:24:27.040Z,111.00
2022-12-19T05:26:54.095Z,101.43
2022-12-19T05:29:21.459Z,105.20
2022-12-19T05:31:48.602Z,107.40
2022-12-19T05:34:15.813Z,108.93
2022-12-19T05:36:42.862Z,108.27
2022-12-19T05:39:09.991Z,111.83
2022-12-19T05:41:37.077Z,111.27
2022-12-19T05:44:04.610Z,120.93
2022-12-19T05:46:31.757Z,119.47
2022-12-19T05:48:59.433Z,114.27
2022-12-19T05:51:27.097Z,122.33
2022-12-19T05:53:54.229Z,111.40
2022-12-19T05:56:23.375Z,117.23
2022-12-19T05:58:50.863Z,109.90
2022-12-19T06:01:23.564Z,111.47
2022-12-19T06:03:51.179Z,135.57
2022-12-19T06:06:23.782Z,106.20
2022-12-19T06:08:59.155Z,112.17
2022-12-19T06:11:27.247Z,141.37
2022-12-19T06:13:54.301Z,108.30
2022-12-19T06:16:23.065Z,133.23
2022-12-19T06:18:50.674Z,110.50
2022-12-19T06:21:20.219Z,113.10
2022-12-19T06:23:48.156Z,130.50
2022-12-19T06:26:20.010Z,122.27
2022-12-19T06:28:51.933Z,122.03
2022-12-19T06:31:21.218Z,107.33
2022-12-19T06:33:48.381Z,146.13
2022-12-19T06:36:23.998Z,121.70
2022-12-19T06:38:52.292Z,116.63
2022-12-19T06:41:38.900Z,111.10
2022-12-19T06:44:08.496Z,113.33
2022-12-19T06:46:37.003Z,115.57
2022-12-19T06:49:04.938Z,116.43
2022-12-19T06:51:31.973Z,125.00
2022-12-19T06:53:59.201Z,99.23
2022-12-19T06:56:26.440Z,115.03
2022-12-19T06:58:53.600Z,111.13
2022-12-19T07:01:30.419Z,107.60
2022-12-19T07:03:57.866Z,104.73
2022-12-19T07:06:24.937Z,105.37
2022-12-19T07:08:53.442Z,106.17
2022-12-19T07:11:20.536Z,98.20
2022-12-19T07:13:47.687Z,99.13
2022-12-19T07:16:14.930Z,100.23
2022-12-19T07:18:42.478Z,91.83
2022-12-19T07:21:13.875Z,98.27
2022-12-19T07:23:41.593Z,102.03
2022-12-19T07:26:08.661Z,105.17
2022-12-19T07:28:36.756Z,96.77
2022-12-19T07:31:04.528Z,95.40
2022-12-19T07:33:31.682Z,97.37
2022-12-19T07:35:58.566Z,99.77
2022-12-19T07:38:25.668Z,93.40
2022-12-19T07:40:52.727Z,91.53
2022-12-19T07:43:20.001Z,101.17
2022-12-19T07:45:47.144Z,98.13
2022-12-19T07:48:14.312Z,98.77
2022-12-19T07:50:41.923Z,87.67
2022-12-19T07:53:09.101Z,97.90
2022-12-19T07:55:36.141Z,90.63
2022-12-19T07:58:03.963Z,88.93
2022-12-19T08:00:31.715Z,90.73
2022-12-19T08:03:01.922Z,83.70
2022-12-19T08:05:29.115Z,97.10
2022-12-19T08:07:56.220Z,84.37
2022-12-19T08:10:23.531Z,84.43
2022-12-19T08:12:51.496Z,82.27
2022-12-19T08:15:18.575Z,88.87
2022-12-19T08:17:45.759Z,92.60
2022-12-19T08:20:13.719Z,76.97
2022-12-19T08:22:40.848Z,77.93
2022-12-19T08:25:08.780Z,78.07
2022-12-19T08:27:36.121Z,80.57
2022-12-19T08:30:04.026Z,88.93
2022-12-19T08:32:31.417Z,82.67
2022-12-19T08:35:00.640Z,74.37
2022-12-19T08:37:27.784Z,70.07
2022-12-19T08:39:54.905Z,76.03
2022-12-19T08:42:22.317Z,81.97
2022-12-19T08:44:49.374Z,89.13
2022-12-19T08:47:16.537Z,71.57
2022-12-19T08:49:43.797Z,76.53
2022-12-19T08:52:11.051Z,80.60
2022-12-19T08:54:38.164Z,72.53
2022-12-19T08:57:05.294Z,64.33
2022-12-19T08:59:32.507Z,72.13
2022-12-19T09:02:02.849Z,69.10
2022-12-19T09:06:02.070Z,84.67
2022-12-19T09:07:20.663Z,71.67
2022-12-19T09:09:47.717Z,73.30
2022-12-19T09:12:16.284Z,72.10
2022-12-19T09:14:44.458Z,73.83
2022-12-19T09:17:11.820Z,75.63
2022-12-19T09:19:39.110Z,72.70
2022-12-19T09:22:08.212Z,75.80
2022-12-19T09:24:35.334Z,72.87
2022-12-19T09:27:02.635Z,68.63
2022-12-19T09:29:34.909Z,69.00
2022-12-19T09:32:03.335Z,67.30
2022-12-19T09:34:36.735Z,57.70
2022-12-19T09:37:16.800Z,53.83
2022-12-19T09:39:48.490Z,65.73
2022-12-19T09:43:07.452Z,62.77
2022-12-19T09:45:51.206Z,62.70
2022-12-19T09:48:23.609Z,59.33
2022-12-19T09:51:11.172Z,55.47
2022-12-19T09:54:01.556Z,51.57
2022-12-19T09:56:45.330Z,50.10
2022-12-19T09:59:45.966Z,59.60
2022-12-19T10:02:56.365Z,54.10
2022-12-19T10:07:06.861Z,50.53
2022-12-19T10:09:18.914Z,59.30
2022-12-19T10:12:40.358Z,54.13
2022-12-19T10:15:03.909Z,57.83
2022-12-19T10:18:06.305Z,55.17
2022-12-19T10:20:38.701Z,58.97
2022-12-19T10:23:34.714Z,61.93
2022-12-19T10:26:30.094Z,56.77
2022-12-19T10:29:28.541Z,61.13
2022-12-19T10:32:20.078Z,55.83
2022-12-19T10:34:48.707Z,55.87
2022-12-19T10:37:42.123Z,65.53
2022-12-19T10:40:34.908Z,69.50
2022-12-19T10:43:30.620Z,70.20
2022-12-19T10:46:11.686Z,69.37
2022-12-19T10:48:38.951Z,60.57
2022-12-19T10:51:18.248Z,65.80
2022-12-19T10:53:57.250Z,65.13
2022-12-19T10:56:37.193Z,62.57
2022-12-19T10:59:16.912Z,65.23
2022-12-19T11:01:45.010Z,65.13
2022-12-19T11:04:34.102Z,64.73
2022-12-19T11:07:20.315Z,61.80
2022-12-19T11:09:59.928Z,69.67
2022-12-19T11:15:45.361Z,60.47
2022-12-19T11:19:31.116Z,73.67
2022-12-19T11:28:19.166Z,68.13
2022-12-19T11:29:38.826Z,65.50
2022-12-19T11:29:43.285Z,65.63
2022-12-19T11:30:45.320Z,60.77
2022-12-19T11:32:46.077Z,65.17
2022-12-19T11:35:37.227Z,67.53
2022-12-19T11:38:17.585Z,59.37
2022-12-19T11:40:55.982Z,60.00
2022-12-19T11:43:55.898Z,64.00
2022-12-19T11:46:53.985Z,59.70
2022-12-19T11:49:29.008Z,62.53
2022-12-19T11:55:36.295Z,52.03
2022-12-19T11:58:03.433Z,50.27
2022-12-19T12:00:31.632Z,45.77
2022-12-19T12:03:21.649Z,48.03
2022-12-19T12:05:51.743Z,38.83
2022-12-19T12:10:17.860Z,42.20
2022-12-19T12:19:04.531Z,40.13
2022-12-19T12:24:15.899Z,41.23
2022-12-19T12:31:05.200Z,39.77
2022-12-19T12:31:21.387Z,33.80
2022-12-19T12:31:48.871Z,37.70
2022-12-19T12:32:05.785Z,37.63
2022-12-19T12:35:56.482Z,37.60
2022-12-19T12:39:04.179Z,34.40
2022-12-19T12:42:04.165Z,19.80
2022-12-19T12:44:45.970Z,28.90
2022-12-19T12:47:20.662Z,28.93
2022-12-19T12:50:13.881Z,28.93
2022-12-19T12:52:48.100Z,24.60
2022-12-19T12:55:33.852Z,29.87
2022-12-19T12:58:01.501Z,28.80
2022-12-19T13:00:34.118Z,25.27
2022-12-19T13:03:18.125Z,28.00
2022-12-19T13:06:24.326Z,27.87
2022-12-19T13:09:03.226Z,27.17
2022-12-19T13:12:07.009Z,27.67
2022-12-19T13:14:52.418Z,26.77
2022-12-19T13:18:02.932Z,27.73
2022-12-19T13:20:50.220Z,23.87
2022-12-19T13:23:53.674Z,25.20
2022-12-19T13:26:42.304Z,26.90
2022-12-19T13:29:29.346Z,26.10
2022-12-19T13:32:14.257Z,28.97
2022-12-19T13:34:58.231Z,27.00
2022-12-19T13:39:54.016Z,23.47
2022-12-19T13:40:58.903Z,28.40
2022-12-19T13:43:48.267Z,28.83
2022-12-19T13:46:42.679Z,29.77
2022-12-19T13:49:30.500Z,29.67
2022-12-19T13:52:02.683Z,31.80
2022-12-19T13:54:34.892Z,29.57
2022-12-19T13:57:08.175Z,26.03
2022-12-19T13:59:40.294Z,27.97
2022-12-19T14:02:25.744Z,25.00
2022-12-19T14:04:53.124Z,23.73
2022-12-19T14:07:36.936Z,28.67
2022-12-19T14:11:30.667Z,21.00
2022-12-19T14:13:48.620Z,33.40
2022-12-19T14:16:04.490Z,25.70
2022-12-19T14:18:43.671Z,28.83
2022-12-19T14:22:11.644Z,27.40
2022-12-19T14:24:23.179Z,30.10
2022-12-19T14:28:21.292Z,28.07
2022-12-19T14:30:29.035Z,30.73
2022-12-19T14:33:43.501Z,28.30
2022-12-19T14:36:11.520Z,36.63
2022-12-19T14:39:19.586Z,26.80
2022-12-19T14:42:00.700Z,27.90
2022-12-19T14:52:52.431Z,26.83
2022-12-19T14:54:03.655Z,27.30
2022-12-19T14:54:26.484Z,28.47
2022-12-19T14:54:48.514Z,28.37
2022-12-19T14:56:54.394Z,33.03
2022-12-19T14:59:05.719Z,29.07
2022-12-19T15:01:35.421Z,29.87
2022-12-19T15:04:50.229Z,31.80
2022-12-19T15:07:13.374Z,29.17
2022-12-19T15:11:04.726Z,31.30
2022-12-19T15:14:48.563Z,30.97
2022-12-19T15:16:25.889Z,31.90
2022-12-19T15:18:59.168Z,35.03
2022-12-19T15:21:27.646Z,35.53
2022-12-19T15:23:54.768Z,36.77
2022-12-19T15:26:36.591Z,37.47
2022-12-19T15:29:12.929Z,37.73
2022-12-19T15:31:44.238Z,35.77
2022-12-19T15:34:35.908Z,37.47
2022-12-19T15:37:05.571Z,40.90
2022-12-19T15:39:32.669Z,44.07
2022-12-19T15:42:01.081Z,37.70
2022-12-19T15:44:40.120Z,37.27
2022-12-19T15:47:37.692Z,40.83
2022-12-19T15:50:40.235Z,39.20
2022-12-19T15:53:32.769Z,40.07
2022-12-19T15:56:24.873Z,37.50
2022-12-19T15:58:53.983Z,34.80
2022-12-19T16:01:22.090Z,37.15
2022-12-19T16:03:50.377Z,41.23
2022-12-19T16:06:17.630Z,39.00
2022-12-19T16:08:44.875Z,35.70
2022-12-19T16:11:21.669Z,36.37
2022-12-19T16:13:58.772Z,35.00
2022-12-19T16:16:25.979Z,40.07
2022-12-19T16:18:53.034Z,39.67
2022-12-19T16:21:31.654Z,32.70
2022-12-19T16:24:00.952Z,39.40
2022-12-19T16:26:37.880Z,37.77
2022-12-19T16:29:06.565Z,42.83
2022-12-19T16:31:33.674Z,38.20
2022-12-19T16:34:02.486Z,37.93
2022-12-19T16:36:29.579Z,35.00
2022-12-19T16:38:56.664Z,35.57
2022-12-19T16:41:25.629Z,42.10
2022-12-19T16:43:53.194Z,46.43
2022-12-19T16:46:22.424Z,48.63
2022-12-19T16:48:49.979Z,54.23
2022-12-19T16:51:22.737Z,57.03
2022-12-19T16:53:51.632Z,53.37
2022-12-19T16:56:29.625Z,62.50
2022-12-19T16:58:59.742Z,54.23
2022-12-19T17:01:27.907Z,57.10
2022-12-19T17:03:55.178Z,51.77
2022-12-19T17:06:23.070Z,48.63
2022-12-19T17:08:50.203Z,51.87
2022-12-19T17:11:26.185Z,57.17
2022-12-19T17:14:00.723Z,49.10
2022-12-19T17:16:29.144Z,55.47
2022-12-19T17:18:58.389Z,48.93
2022-12-19T17:21:25.560Z,53.83
2022-12-19T17:23:53.019Z,52.10
2022-12-19T17:26:21.175Z,56.93
2022-12-19T17:28:48.577Z,51.63
2022-12-19T17:31:28.535Z,50.27
2022-12-19T17:33:58.102Z,45.37
2022-12-19T17:36:32.622Z,46.63
2022-12-19T17:39:02.997Z,52.33
2022-12-19T17:41:30.618Z,51.20
2022-12-19T17:43:57.933Z,61.67
2022-12-19T17:46:25.722Z,48.80
2022-12-19T17:48:53.823Z,51.57
2022-12-19T17:51:22.629Z,53.00
2022-12-19T17:53:50.191Z,51.13
2022-12-19T17:56:19.170Z,52.13
2022-12-19T17:58:48.520Z,57.80
2022-12-19T18:01:20.970Z,56.53
2022-12-19T18:03:49.393Z,60.80
2022-12-19T18:06:17.000Z,58.20
2022-12-19T18:08:44.943Z,53.20
2022-12-19T18:11:36.909Z,51.10
2022-12-19T18:14:08.601Z,49.77
2022-12-19T18:16:35.800Z,58.20
2022-12-19T18:19:04.651Z,57.43
2022-12-19T18:21:31.794Z,65.97
2022-12-19T18:23:59.250Z,54.87
2022-12-19T18:26:26.316Z,50.83
2022-12-19T18:28:54.695Z,60.67
2022-12-19T18:31:27.813Z,52.07
2022-12-19T18:33:55.388Z,55.07
2022-12-19T18:36:27.731Z,59.97
2022-12-19T18:38:56.455Z,48.70
2022-12-19T18:41:24.235Z,62.13
2022-12-19T18:43:51.306Z,54.67
2022-12-19T18:46:27.814Z,48.17
2022-12-19T18:48:55.546Z,53.43
2022-12-19T18:51:23.401Z,71.13
2022-12-19T18:53:51.497Z,60.43
2022-12-19T18:56:18.733Z,64.80
2022-12-19T18:58:46.161Z,71.50
2022-12-19T19:01:21.339Z,74.53
2022-12-19T19:03:54.639Z,60.90
2022-12-19T19:06:27.956Z,48.93
2022-12-19T19:08:57.086Z,56.80
2022-12-19T19:11:56.504Z,64.73
2022-12-19T19:14:23.570Z,60.57
2022-12-19T19:16:52.604Z,54.70
2022-12-19T19:19:19.834Z,57.47
2022-12-19T19:21:47.007Z,54.67
2022-12-19T19:24:17.433Z,74.53
2022-12-19T19:26:44.751Z,66.17
2022-12-19T19:29:13.698Z,50.63
2022-12-19T19:31:44.118Z,60.10
2022-12-19T19:34:31.483Z,50.90
2022-12-19T19:37:02.337Z,78.90
2022-12-19T19:39:33.044Z,84.10
2022-12-19T19:42:01.172Z,82.37
2022-12-19T19:44:29.078Z,83.20
2022-12-19T19:46:56.907Z,104.73
2022-12-19T19:49:24.417Z,99.40
2022-12-19T19:51:56.826Z,109.77
2022-12-19T19:54:25.693Z,92.70
2022-12-19T19:56:52.792Z,84.60
2022-12-19T19:59:21.406Z,94.77
2022-12-19T20:01:48.625Z,84.57
2022-12-19T20:04:15.823Z,67.97
2022-12-19T20:06:43.057Z,98.90
2022-12-19T20:09:10.204Z,93.63
2022-12-19T20:11:37.360Z,118.50
2022-12-19T20:14:04.630Z,126.73
2022-12-19T20:16:31.878Z,109.27
2022-12-19T20:18:59.989Z,123.60
2022-12-19T20:21:27.441Z,106.30
2022-12-19T20:23:54.592Z,87.80
2022-12-19T20:26:21.765Z,84.33
2022-12-19T20:28:50.973Z,102.20
2022-12-19T20:31:23.237Z,97.97
2022-12-19T20:33:53.206Z,96.73
2022-12-19T20:36:20.775Z,82.50
2022-12-19T20:38:48.491Z,148.43
2022-12-19T20:41:16.949Z,77.37
2022-12-19T20:43:44.960Z,77.27
2022-12-19T20:46:17.987Z,68.57
2022-12-19T20:48:45.961Z,99.53
2022-12-19T20:51:14.141Z,66.10
2022-12-19T20:53:42.195Z,69.60
2022-12-19T20:56:13.405Z,83.00
2022-12-19T20:58:40.534Z,83.90
2022-12-19T21:01:11.089Z,67.03
2022-12-19T21:03:38.964Z,65.67
2022-12-19T21:06:07.208Z,65.97
2022-12-19T21:08:35.441Z,68.30
2022-12-19T21:11:04.093Z,81.87
2022-12-19T21:13:31.483Z,90.77
2022-12-19T21:16:03.150Z,110.87
2022-12-19T21:18:30.906Z,113.70
2022-12-19T21:20:59.254Z,103.07
2022-12-19T21:23:26.899Z,91.43
2022-12-19T21:25:58.120Z,78.43
2022-12-19T21:28:25.837Z,107.57
2022-12-19T21:31:05.728Z,96.13
2022-12-19T21:33:33.588Z,89.83
2022-12-19T21:36:12.898Z,77.10
2022-12-19T21:38:40.107Z,95.53
2022-12-19T21:41:08.211Z,90.20
2022-12-19T21:43:36.802Z,103.07
2022-12-19T21:46:09.070Z,90.40
2022-12-19T21:48:38.731Z,89.40
2022-12-19T21:51:06.656Z,107.60
2022-12-19T21:53:35.575Z,90.33
2022-12-19T21:56:30.203Z,84.47
2022-12-19T21:59:00.774Z,128.23
2022-12-19T22:01:28.263Z,122.97
2022-12-19T22:04:03.566Z,105.87
2022-12-19T22:06:32.765Z,91.60
2022-12-19T22:09:01.314Z,127.90
2022-12-19T22:11:30.172Z,105.03
2022-12-19T22:14:00.261Z,80.63
2022-12-19T22:16:28.420Z,117.40
2022-12-19T22:18:56.649Z,95.67
2022-12-19T22:21:24.491Z,81.63
2022-12-19T22:23:56.010Z,83.90
2022-12-19T22:26:24.467Z,80.57
2022-12-19T22:28:54.736Z,82.40
2022-12-19T22:31:30.061Z,88.70
2022-12-19T22:34:08.728Z,132.50
2022-12-19T22:36:37.666Z,97.53
2022-12-19T22:39:07.435Z,82.43
2022-12-19T22:41:35.816Z,90.20
2022-12-19T22:44:03.342Z,108.63
2022-12-19T22:46:35.603Z,90.07
2022-12-19T22:49:05.927Z,94.60
2022-12-19T22:51:34.366Z,92.33
2022-12-19T22:54:01.759Z,94.37
2022-12-19T22:56:31.182Z,80.80
2022-12-19T22:59:04.627Z,113.67
2022-12-19T23:01:38.114Z,149.63
2022-12-19T23:04:06.827Z,128.47
2022-12-19T23:06:36.150Z,106.17
2022-12-19T23:09:05.800Z,95.53
2022-12-19T23:11:40.165Z,91.67
2022-12-19T23:14:09.799Z,87.20
2022-12-19T23:16:36.947Z,65.17
2022-12-19T23:19:05.366Z,75.53
2022-12-19T23:21:32.826Z,93.00
2022-12-19T23:24:00.552Z,72.90
2022-12-19T23:26:33.494Z,99.93
2022-12-19T23:29:12.096Z,85.53
2022-12-19T23:31:41.038Z,125.10
2022-12-19T23:34:08.645Z,128.87
2022-12-19T23:37:09.619Z,127.63
2022-12-19T23:39:22.895Z,98.93
2022-12-19T23:41:50.107Z,114.60
2022-12-19T23:44:17.520Z,97.30
2022-12-19T23:46:44.576Z,92.57
2022-12-19T23:49:11.726Z,88.73
2022-12-19T23:51:38.816Z,80.83
2022-12-19T23:54:06.079Z,83.73
2022-12-19T23:56:33.211Z,88.90
2022-12-19T23:59:00.886Z,121.30
